createdAt,value
2018-09-17T00:01:44.912Z,11.10
2018-09-17T00:04:13.416Z,11.08
2018-09-17T00:06:41.932Z,11.01
2018-09-17T00:09:11.741Z,11.14
2018-09-17T00:11:40.361Z,11.02
2018-09-17T00:14:09.139Z,11.06
2018-09-17T00:16:37.729Z,10.95
2018-09-17T00:19:06.340Z,10.92
2018-09-17T00:21:35.361Z,10.83
2018-09-17T00:24:03.965Z,10.91
2018-09-17T00:26:32.528Z,10.81
2018-09-17T00:29:01.248Z,10.78
2018-09-17T00:31:29.744Z,10.75
2018-09-17T00:33:58.463Z,10.74
2018-09-17T00:36:27.180Z,10.69
2018-09-17T00:38:55.696Z,10.74
2018-09-17T00:41:24.209Z,10.74
2018-09-17T00:43:52.726Z,10.81
2018-09-17T00:46:21.229Z,10.78
2018-09-17T00:48:49.756Z,10.72
2018-09-17T00:51:18.725Z,10.70
2018-09-17T00:53:47.262Z,10.74
2018-09-17T00:56:17.001Z,10.78
2018-09-17T00:58:45.527Z,10.82
2018-09-17T01:01:14.269Z,10.88
2018-09-17T01:03:42.748Z,10.94
2018-09-17T01:06:11.239Z,10.90
2018-09-17T01:08:39.786Z,10.80
2018-09-17T01:11:08.316Z,10.79
2018-09-17T01:13:36.818Z,10.81
2018-09-17T01:16:05.343Z,10.82
2018-09-17T01:18:33.859Z,10.76
2018-09-17T01:21:02.397Z,10.71
2018-09-17T01:23:30.935Z,10.67
2018-09-17T01:25:59.474Z,10.65
2018-09-17T01:28:28.053Z,10.66
2018-09-17T01:30:56.586Z,10.68
2018-09-17T01:33:25.135Z,10.60
2018-09-17T01:35:54.001Z,10.59
2018-09-17T01:38:22.521Z,10.59
2018-09-17T01:40:51.175Z,10.62
2018-09-17T01:43:20.126Z,10.62
2018-09-17T01:45:48.810Z,10.54
2018-09-17T01:48:17.297Z,10.51
2018-09-17T01:50:46.784Z,10.56
2018-09-17T01:53:15.403Z,10.60
2018-09-17T01:55:43.920Z,10.61
2018-09-17T01:58:12.523Z,10.64
2018-09-17T02:00:41.162Z,10.59
2018-09-17T02:03:09.719Z,10.62
2018-09-17T02:05:38.378Z,10.68
2018-09-17T02:08:07.242Z,10.69
2018-09-17T02:10:35.793Z,10.68
2018-09-17T02:13:04.400Z,10.65
2018-09-17T02:15:33.180Z,10.68
2018-09-17T02:18:01.656Z,10.63
2018-09-17T02:20:30.169Z,10.63
2018-09-17T02:22:58.710Z,10.77
2018-09-17T02:25:27.200Z,10.76
2018-09-17T02:27:55.848Z,10.74
2018-09-17T02:30:24.314Z,10.74
2018-09-17T02:32:52.861Z,10.71
2018-09-17T02:35:21.360Z,10.65
2018-09-17T02:37:49.845Z,10.62
2018-09-17T02:40:18.968Z,10.61
2018-09-17T02:42:49.435Z,10.55
2018-09-17T02:45:18.486Z,10.51
2018-09-17T02:47:47.007Z,10.58
2018-09-17T02:50:15.589Z,10.66
2018-09-17T02:52:44.089Z,10.80
2018-09-17T02:55:12.659Z,10.69
2018-09-17T02:57:41.178Z,10.64
2018-09-17T03:00:10.422Z,10.55
2018-09-17T03:02:39.448Z,10.48
2018-09-17T03:05:08.490Z,10.48
2018-09-17T03:07:36.963Z,10.48
2018-09-17T03:10:05.616Z,10.45
2018-09-17T03:12:34.117Z,10.44
2018-09-17T03:15:13.667Z,10.36
2018-09-17T03:17:42.173Z,10.38
2018-09-17T03:20:10.711Z,10.37
2018-09-17T03:22:39.696Z,10.39
2018-09-17T03:25:08.198Z,10.38
2018-09-17T03:27:36.685Z,10.40
2018-09-17T03:30:05.285Z,10.39
2018-09-17T03:32:33.847Z,10.49
2018-09-17T03:35:02.381Z,10.41
2018-09-17T03:37:30.929Z,10.47
2018-09-17T03:40:00.796Z,10.37
2018-09-17T03:42:30.059Z,10.33
2018-09-17T03:44:59.117Z,10.29
2018-09-17T03:47:28.244Z,10.28
2018-09-17T03:49:56.760Z,10.30
2018-09-17T03:52:25.428Z,10.35
2018-09-17T03:54:54.086Z,10.33
2018-09-17T03:57:23.078Z,10.26
2018-09-17T03:59:51.619Z,10.25
2018-09-17T04:02:20.105Z,10.26
2018-09-17T04:04:48.701Z,10.22
2018-09-17T04:07:17.233Z,10.18
2018-09-17T04:09:45.907Z,10.15
2018-09-17T04:12:15.470Z,10.11
2018-09-17T04:14:44.153Z,10.09
2018-09-17T04:17:12.671Z,10.14
2018-09-17T04:19:41.165Z,10.10
2018-09-17T04:22:10.480Z,10.10
2018-09-17T04:24:39.660Z,10.09
2018-09-17T04:27:08.129Z,10.05
2018-09-17T04:29:36.667Z,10.11
2018-09-17T04:32:05.175Z,10.16
2018-09-17T04:34:34.537Z,10.23
2018-09-17T04:37:03.106Z,10.23
2018-09-17T04:39:31.650Z,10.21
2018-09-17T04:42:00.170Z,10.16
2018-09-17T04:44:28.702Z,10.11
2018-09-17T04:46:57.171Z,10.08
2018-09-17T04:49:25.693Z,10.15
2018-09-17T04:51:54.224Z,10.28
2018-09-17T04:54:22.792Z,10.26
2018-09-17T04:56:51.728Z,10.16
2018-09-17T04:59:20.304Z,10.12
2018-09-17T05:01:48.835Z,10.07
2018-09-17T05:04:17.819Z,10.06
2018-09-17T05:06:46.318Z,10.03
2018-09-17T05:09:14.829Z,10.07
2018-09-17T05:11:43.388Z,10.13
2018-09-17T05:14:11.853Z,10.09
2018-09-17T05:16:40.381Z,9.98
2018-09-17T05:19:08.928Z,9.97
2018-09-17T05:21:37.440Z,9.95
2018-09-17T05:24:06.356Z,9.97
2018-09-17T05:26:34.905Z,10.03
2018-09-17T05:29:03.416Z,10.04
2018-09-17T05:31:32.028Z,10.09
2018-09-17T05:34:00.573Z,10.06
2018-09-17T05:36:29.149Z,10.06
2018-09-17T05:38:57.680Z,10.17
2018-09-17T05:41:26.173Z,10.40
2018-09-17T05:43:54.718Z,10.38
2018-09-17T05:46:23.156Z,10.43
2018-09-17T05:48:51.681Z,10.55
2018-09-17T05:51:20.376Z,10.51
2018-09-17T05:53:48.921Z,10.65
2018-09-17T05:56:17.382Z,10.80
2018-09-17T05:58:45.987Z,10.85
2018-09-17T06:01:14.499Z,11.00
2018-09-17T06:03:43.386Z,11.07
2018-09-17T06:06:11.940Z,11.10
2018-09-17T06:08:40.704Z,11.27
2018-09-17T06:11:09.450Z,11.35
2018-09-17T06:13:38.216Z,11.55
2018-09-17T06:16:06.736Z,11.71
2018-09-17T06:18:35.312Z,11.80
2018-09-17T06:21:04.436Z,11.88
2018-09-17T06:23:32.893Z,12.02
2018-09-17T06:26:01.416Z,12.14
2018-09-17T06:28:30.179Z,12.46
2018-09-17T06:30:58.680Z,12.69
2018-09-17T06:33:27.137Z,12.77
2018-09-17T06:35:55.649Z,12.96
2018-09-17T06:38:24.282Z,13.10
2018-09-17T06:40:52.885Z,13.28
2018-09-17T06:43:21.445Z,13.39
2018-09-17T06:45:49.980Z,13.58
2018-09-17T06:48:18.642Z,13.51
2018-09-17T06:50:47.254Z,13.77
2018-09-17T06:53:15.745Z,13.92
2018-09-17T06:55:44.244Z,14.08
2018-09-17T06:58:12.758Z,14.34
2018-09-17T07:00:41.287Z,14.49
2018-09-17T07:03:09.788Z,14.58
2018-09-17T07:05:38.483Z,14.75
2018-09-17T07:08:07.000Z,14.81
2018-09-17T07:10:35.534Z,14.97
2018-09-17T07:13:04.073Z,15.11
2018-09-17T07:15:32.573Z,15.47
2018-09-17T07:18:01.091Z,15.65
2018-09-17T07:20:29.595Z,15.71
2018-09-17T07:22:58.254Z,15.87
2018-09-17T07:25:26.736Z,16.05
2018-09-17T07:27:55.273Z,16.19
2018-09-17T07:30:23.814Z,16.24
2018-09-17T07:32:52.369Z,16.32
2018-09-17T07:35:20.869Z,16.49
2018-09-17T07:37:49.396Z,16.46
2018-09-17T07:40:17.883Z,16.53
2018-09-17T07:42:46.408Z,16.53
2018-09-17T07:45:14.942Z,16.60
2018-09-17T07:47:43.492Z,16.73
2018-09-17T07:50:12.105Z,16.81
2018-09-17T07:52:40.618Z,16.87
2018-09-17T07:55:09.112Z,16.95
2018-09-17T07:57:38.169Z,16.99
2018-09-17T08:00:06.708Z,17.16
2018-09-17T08:02:35.237Z,17.09
2018-09-17T08:05:03.717Z,17.29
2018-09-17T08:07:32.429Z,17.43
2018-09-17T08:10:00.968Z,17.26
2018-09-17T08:12:29.468Z,17.42
2018-09-17T08:14:57.988Z,17.48
2018-09-17T08:17:26.559Z,17.45
2018-09-17T08:19:55.070Z,17.57
2018-09-17T08:22:23.583Z,17.72
2018-09-17T08:24:52.090Z,17.93
2018-09-17T08:27:20.644Z,18.01
2018-09-17T08:29:49.193Z,18.24
2018-09-17T08:32:17.708Z,18.50
2018-09-17T08:34:46.199Z,18.45
2018-09-17T08:37:14.723Z,18.45
2018-09-17T08:39:43.782Z,18.61
2018-09-17T08:42:12.248Z,18.95
2018-09-17T08:44:40.749Z,19.14
2018-09-17T08:47:09.259Z,19.12
2018-09-17T08:49:37.755Z,19.35
2018-09-17T08:52:06.401Z,19.35
2018-09-17T08:54:39.854Z,19.44
2018-09-17T08:57:13.605Z,19.39
2018-09-17T08:59:46.270Z,19.36
2018-09-17T09:02:15.713Z,19.81
2018-09-17T09:04:49.760Z,19.99
2018-09-17T09:07:23.475Z,20.14
2018-09-17T09:09:54.070Z,19.99
2018-09-17T09:12:26.022Z,20.21
2018-09-17T09:15:00.684Z,20.39
2018-09-17T09:17:29.244Z,20.14
2018-09-17T09:19:57.741Z,20.71
2018-09-17T09:22:26.220Z,20.83
2018-09-17T09:24:54.734Z,21.02
2018-09-17T09:27:23.297Z,21.07
2018-09-17T09:29:51.889Z,21.03
2018-09-17T09:32:20.473Z,21.07
2018-09-17T09:34:49.035Z,20.90
2018-09-17T09:37:17.572Z,21.15
2018-09-17T09:39:46.182Z,21.37
2018-09-17T09:42:14.714Z,21.36
2018-09-17T09:44:43.382Z,21.94
2018-09-17T09:47:12.130Z,21.69
2018-09-17T09:49:40.598Z,21.90
2018-09-17T09:52:09.320Z,22.01
2018-09-17T09:54:38.176Z,22.13
2018-09-17T09:57:06.722Z,22.04
2018-09-17T09:59:35.616Z,22.33
2018-09-17T10:02:09.264Z,22.40
2018-09-17T10:04:37.737Z,21.79
2018-09-17T10:07:06.285Z,21.71
2018-09-17T10:09:39.983Z,21.59
2018-09-17T10:12:13.695Z,22.07
2018-09-17T10:14:47.378Z,21.91
2018-09-17T10:18:25.069Z,21.94
2018-09-17T10:20:53.559Z,21.85
2018-09-17T10:23:22.429Z,21.89
2018-09-17T10:25:51.021Z,22.20
2018-09-17T10:28:19.504Z,22.32
2018-09-17T10:30:48.206Z,22.43
2018-09-17T10:33:16.769Z,22.81
2018-09-17T10:35:45.261Z,22.98
2018-09-17T10:38:27.110Z,22.61
2018-09-17T10:40:55.612Z,22.71
2018-09-17T10:43:24.399Z,22.19
2018-09-17T10:45:52.949Z,22.67
2018-09-17T10:48:21.437Z,22.55
2018-09-17T10:50:50.239Z,22.50
2018-09-17T10:53:18.720Z,22.63
2018-09-17T10:55:47.241Z,22.91
2018-09-17T10:58:15.849Z,22.91
2018-09-17T11:00:44.509Z,23.33
2018-09-17T11:03:13.190Z,23.41
2018-09-17T11:05:41.721Z,23.54
2018-09-17T11:08:10.281Z,23.62
2018-09-17T11:10:39.028Z,23.77
2018-09-17T11:13:07.567Z,23.66
2018-09-17T11:15:41.474Z,23.90
2018-09-17T11:18:10.061Z,24.02
2018-09-17T11:20:38.595Z,23.94
2018-09-17T11:23:07.351Z,23.62
2018-09-17T11:25:35.842Z,23.62
2018-09-17T11:28:04.429Z,23.29
2018-09-17T11:30:32.981Z,23.76
2018-09-17T11:33:01.543Z,23.28
2018-09-17T11:35:30.071Z,23.74
2018-09-17T11:37:58.587Z,23.53
2018-09-17T11:40:27.134Z,23.73
2018-09-17T11:42:55.609Z,24.17
2018-09-17T11:45:24.136Z,24.08
2018-09-17T11:47:52.649Z,24.43
2018-09-17T11:50:21.163Z,24.27
2018-09-17T11:52:49.985Z,24.06
2018-09-17T11:55:18.520Z,23.75
2018-09-17T11:57:47.027Z,23.97
2018-09-17T12:00:20.620Z,24.10
2018-09-17T12:02:54.852Z,24.12
2018-09-17T12:05:28.729Z,23.70
2018-09-17T12:07:57.304Z,24.62
2018-09-17T12:10:25.808Z,24.81
2018-09-17T12:12:54.371Z,25.40
2018-09-17T12:15:23.096Z,25.23
2018-09-17T12:17:51.753Z,26.49
2018-09-17T12:20:21.538Z,27.09
2018-09-17T12:22:50.061Z,26.74
2018-09-17T12:25:18.699Z,26.84
2018-09-17T12:27:47.298Z,28.39
2018-09-17T12:30:15.827Z,28.26
2018-09-17T12:32:44.564Z,28.94
2018-09-17T12:35:13.072Z,29.93
2018-09-17T12:37:41.757Z,28.19
2018-09-17T12:40:10.321Z,26.00
2018-09-17T12:42:38.832Z,27.09
2018-09-17T12:45:07.461Z,29.21
2018-09-17T12:47:35.992Z,28.84
2018-09-17T12:50:04.571Z,29.23
2018-09-17T12:52:33.078Z,30.17
2018-09-17T12:55:01.612Z,28.44
2018-09-17T12:57:30.195Z,28.06
2018-09-17T12:59:58.808Z,26.26
2018-09-17T13:02:27.290Z,27.64
2018-09-17T13:04:55.963Z,28.60
2018-09-17T13:07:24.471Z,29.64
2018-09-17T13:09:52.975Z,29.19
2018-09-17T13:12:21.530Z,29.89
2018-09-17T13:14:50.088Z,29.83
2018-09-17T13:17:18.598Z,30.02
2018-09-17T13:19:47.164Z,29.08
2018-09-17T13:22:15.761Z,28.64
2018-09-17T13:24:44.429Z,29.20
2018-09-17T13:27:12.912Z,29.42
2018-09-17T13:29:41.408Z,27.60
2018-09-17T13:32:09.946Z,28.66
2018-09-17T13:34:38.713Z,29.41
2018-09-17T13:37:07.374Z,28.90
2018-09-17T13:39:35.901Z,28.91
2018-09-17T13:42:04.468Z,28.26
2018-09-17T13:44:33.164Z,29.01
2018-09-17T13:47:01.960Z,28.98
2018-09-17T13:49:30.536Z,28.05
2018-09-17T13:51:59.190Z,29.40
2018-09-17T13:54:28.006Z,29.21
2018-09-17T13:56:56.640Z,29.42
2018-09-17T13:59:25.297Z,30.28
2018-09-17T14:01:53.808Z,29.49
2018-09-17T14:04:22.335Z,29.20
2018-09-17T14:06:50.927Z,29.59
2018-09-17T14:09:19.513Z,30.92
2018-09-17T14:11:48.062Z,31.89
2018-09-17T14:14:16.585Z,30.58
2018-09-17T14:16:45.230Z,30.05
2018-09-17T14:19:13.810Z,32.01
2018-09-17T14:21:42.365Z,32.38
2018-09-17T14:24:10.903Z,29.68
2018-09-17T14:26:39.600Z,29.14
2018-09-17T14:29:08.251Z,31.88
2018-09-17T14:31:42.189Z,31.63
2018-09-17T14:34:10.745Z,31.83
2018-09-17T14:36:39.318Z,31.71
2018-09-17T14:39:09.061Z,30.80
2018-09-17T14:41:37.765Z,30.93
2018-09-17T14:44:06.420Z,32.21
2018-09-17T14:46:34.990Z,30.61
2018-09-17T14:49:03.633Z,29.49
2018-09-17T14:51:32.188Z,30.22
2018-09-17T14:54:00.987Z,32.60
2018-09-17T14:56:29.471Z,32.77
2018-09-17T14:58:58.225Z,32.41
2018-09-17T15:01:27.902Z,32.79
2018-09-17T15:03:56.449Z,33.14
2018-09-17T15:06:25.005Z,32.05
2018-09-17T15:08:53.574Z,32.72
2018-09-17T15:11:22.102Z,31.74
2018-09-17T15:13:50.727Z,31.95
2018-09-17T15:16:20.736Z,32.85
2018-09-17T15:18:49.427Z,33.42
2018-09-17T15:21:17.984Z,32.28
2018-09-17T15:23:46.586Z,33.01
2018-09-17T15:26:15.161Z,34.19
2018-09-17T15:28:43.650Z,34.59
2018-09-17T15:31:12.204Z,34.75
2018-09-17T15:33:40.700Z,33.98
2018-09-17T15:36:09.244Z,33.92
2018-09-17T15:38:37.871Z,33.50
2018-09-17T15:41:06.445Z,32.34
2018-09-17T15:43:34.898Z,32.01
2018-09-17T15:46:03.741Z,31.94
2018-09-17T15:48:32.258Z,30.77
2018-09-17T15:51:00.740Z,30.11
2018-09-17T15:53:29.256Z,29.89
2018-09-17T15:55:57.847Z,30.19
2018-09-17T15:58:26.373Z,30.89
2018-09-17T16:00:54.873Z,30.68
2018-09-17T16:03:23.403Z,31.32
2018-09-17T16:05:51.993Z,30.08
2018-09-17T16:08:20.489Z,29.18
2018-09-17T16:10:49.038Z,30.03
2018-09-17T16:13:17.601Z,30.37
2018-09-17T16:15:47.472Z,31.33
2018-09-17T16:18:16.928Z,31.05
2018-09-17T16:20:45.437Z,31.71
2018-09-17T16:23:13.969Z,31.78
2018-09-17T16:25:42.665Z,32.16
2018-09-17T16:28:11.174Z,32.54
2018-09-17T16:30:39.716Z,31.06
2018-09-17T16:33:08.284Z,31.02
2018-09-17T16:35:36.862Z,31.26
2018-09-17T16:38:05.435Z,31.01
2018-09-17T16:40:33.991Z,30.24
2018-09-17T16:43:02.512Z,30.76
2018-09-17T16:45:31.049Z,30.47
2018-09-17T16:47:59.624Z,29.99
2018-09-17T16:50:28.457Z,29.54
2018-09-17T16:52:57.015Z,28.80
2018-09-17T16:55:25.538Z,27.94
2018-09-17T16:57:54.292Z,26.99
2018-09-17T17:00:22.993Z,26.81
2018-09-17T17:02:51.504Z,26.54
2018-09-17T17:05:20.050Z,25.87
2018-09-17T17:07:48.592Z,25.52
2018-09-17T17:10:17.195Z,25.38
2018-09-17T17:12:45.710Z,24.62
2018-09-17T17:15:14.208Z,23.66
2018-09-17T17:17:42.757Z,23.29
2018-09-17T17:20:11.293Z,23.23
2018-09-17T17:22:39.822Z,23.19
2018-09-17T17:25:08.382Z,22.97
2018-09-17T17:27:39.849Z,22.82
2018-09-17T17:30:08.832Z,22.50
2018-09-17T17:32:37.370Z,22.16
2018-09-17T17:35:06.075Z,21.90
2018-09-17T17:37:34.635Z,21.66
2018-09-17T17:40:03.249Z,21.38
2018-09-17T17:42:31.719Z,21.07
2018-09-17T17:45:00.258Z,20.68
2018-09-17T17:47:28.847Z,20.54
2018-09-17T17:49:57.445Z,20.48
2018-09-17T17:52:25.990Z,20.01
2018-09-17T17:54:54.542Z,19.80
2018-09-17T17:57:23.084Z,19.71
2018-09-17T17:59:51.737Z,19.63
2018-09-17T18:02:20.274Z,19.48
2018-09-17T18:04:48.888Z,19.23
2018-09-17T18:07:17.507Z,19.07
2018-09-17T18:09:46.045Z,18.84
2018-09-17T18:12:14.694Z,18.66
2018-09-17T18:14:43.302Z,18.53
2018-09-17T18:17:11.869Z,18.33
2018-09-17T18:19:40.531Z,18.20
2018-09-17T18:22:09.057Z,18.07
2018-09-17T18:24:37.582Z,17.95
2018-09-17T18:27:06.097Z,17.80
2018-09-17T18:29:34.624Z,17.66
2018-09-17T18:32:03.161Z,17.56
2018-09-17T18:34:31.695Z,17.47
2018-09-17T18:37:00.504Z,17.41
2018-09-17T18:39:29.237Z,17.24
2018-09-17T18:41:57.741Z,17.15
2018-09-17T18:44:26.313Z,17.04
2018-09-17T18:46:54.876Z,16.92
2018-09-17T18:49:23.448Z,16.81
2018-09-17T18:51:52.022Z,16.73
2018-09-17T18:54:20.665Z,16.65
2018-09-17T18:56:49.338Z,16.57
2018-09-17T18:59:17.840Z,16.50
2018-09-17T19:01:46.405Z,16.45
2018-09-17T19:04:14.976Z,16.35
2018-09-17T19:06:43.541Z,16.33
2018-09-17T19:09:12.301Z,16.23
2018-09-17T19:11:41.033Z,16.13
2018-09-17T19:14:15.036Z,16.07
2018-09-17T19:16:49.734Z,15.97
2018-09-17T19:19:18.492Z,15.87
2018-09-17T19:21:52.724Z,15.78
2018-09-17T19:24:21.249Z,15.75
2018-09-17T19:26:49.872Z,15.70
2018-09-17T19:29:20.350Z,15.70
2018-09-17T19:31:49.609Z,15.60
2018-09-17T19:34:18.265Z,15.51
2018-09-17T19:36:47.249Z,15.46
2018-09-17T19:39:21.088Z,15.31
2018-09-17T19:41:49.998Z,15.20
2018-09-17T19:44:18.769Z,15.10
2018-09-17T19:46:47.219Z,15.03
2018-09-17T19:49:15.829Z,14.96
2018-09-17T19:51:49.625Z,14.87
2018-09-17T19:54:18.257Z,14.88
2018-09-17T19:56:47.076Z,14.88
2018-09-17T19:59:20.874Z,14.81
2018-09-17T20:01:49.463Z,14.68
2018-09-17T20:04:23.805Z,14.66
2018-09-17T20:06:52.458Z,14.59
2018-09-17T20:09:21.074Z,14.53
2018-09-17T20:11:49.593Z,14.61
2018-09-17T20:14:18.200Z,14.58
2018-09-17T20:16:46.852Z,14.55
2018-09-17T20:19:15.393Z,14.42
2018-09-17T20:21:44.554Z,14.42
2018-09-17T20:24:13.241Z,14.35
2018-09-17T20:26:41.777Z,14.23
2018-09-17T20:29:10.290Z,14.16
2018-09-17T20:31:38.846Z,14.17
2018-09-17T20:34:07.369Z,14.11
2018-09-17T20:36:35.856Z,14.02
2018-09-17T20:39:05.857Z,13.97
2018-09-17T20:41:34.381Z,13.90
2018-09-17T20:44:03.310Z,13.93
2018-09-17T20:46:31.822Z,13.86
2018-09-17T20:49:00.487Z,13.76
2018-09-17T20:51:29.165Z,13.71
2018-09-17T20:53:57.691Z,13.61
2018-09-17T20:56:26.241Z,13.60
2018-09-17T20:58:54.743Z,13.63
2018-09-17T21:01:23.577Z,13.58
2018-09-17T21:03:52.062Z,13.54
2018-09-17T21:06:20.773Z,13.59
2018-09-17T21:08:49.596Z,13.53
2018-09-17T21:11:18.096Z,13.48
2018-09-17T21:13:46.608Z,13.44
2018-09-17T21:16:15.343Z,13.44
2018-09-17T21:18:44.178Z,13.46
2018-09-17T21:21:12.929Z,13.35
2018-09-17T21:23:41.638Z,13.31
2018-09-17T21:26:10.429Z,13.24
2018-09-17T21:28:39.014Z,13.14
2018-09-17T21:31:07.568Z,13.09
2018-09-17T21:33:36.336Z,13.12
2018-09-17T21:36:04.886Z,13.06
2018-09-17T21:38:33.448Z,13.04
2018-09-17T21:41:02.037Z,12.99
2018-09-17T21:43:30.591Z,12.99
2018-09-17T21:45:59.137Z,12.96
2018-09-17T21:48:27.648Z,12.96
2018-09-17T21:50:56.164Z,12.89
2018-09-17T21:53:24.621Z,12.88
2018-09-17T21:55:53.511Z,12.83
2018-09-17T21:58:22.007Z,12.81
2018-09-17T22:00:55.949Z,12.77
2018-09-17T22:03:24.518Z,12.76
2018-09-17T22:05:53.072Z,12.75
2018-09-17T22:08:22.180Z,12.79
2018-09-17T22:10:50.734Z,12.71
2018-09-17T22:13:19.362Z,12.67
2018-09-17T22:15:47.906Z,12.68
2018-09-17T22:18:16.475Z,12.66
2018-09-17T22:20:44.975Z,12.77
2018-09-17T22:23:13.468Z,12.70
2018-09-17T22:25:42.135Z,12.65
2018-09-17T22:28:10.700Z,12.69
2018-09-17T22:30:39.203Z,12.60
2018-09-17T22:33:07.719Z,12.60
2018-09-17T22:35:36.270Z,12.57
2018-09-17T22:38:04.863Z,12.53
2018-09-17T22:40:33.766Z,12.50
2018-09-17T22:43:02.329Z,12.49
2018-09-17T22:45:30.826Z,12.42
2018-09-17T22:47:59.336Z,12.38
2018-09-17T22:50:27.893Z,12.34
2018-09-17T22:52:56.448Z,12.28
2018-09-17T22:55:25.219Z,12.34
2018-09-17T22:57:53.729Z,12.43
2018-09-17T23:00:22.338Z,12.32
2018-09-17T23:02:50.863Z,12.24
2018-09-17T23:05:19.644Z,12.20
2018-09-17T23:07:49.035Z,12.17
2018-09-17T23:10:17.648Z,12.13
2018-09-17T23:12:46.194Z,12.05
2018-09-17T23:15:14.745Z,12.12
2018-09-17T23:17:43.205Z,12.09
2018-09-17T23:20:11.893Z,12.03
2018-09-17T23:22:40.407Z,11.99
2018-09-17T23:25:08.931Z,11.93
2018-09-17T23:27:37.633Z,11.98
2018-09-17T23:30:06.498Z,11.97
2018-09-17T23:32:35.727Z,11.95
2018-09-17T23:35:04.375Z,12.02
2018-09-17T23:37:32.867Z,11.98
2018-09-17T23:40:01.775Z,12.02
2018-09-17T23:42:30.388Z,12.21
2018-09-17T23:44:59.275Z,12.24
2018-09-17T23:47:27.784Z,12.36
2018-09-17T23:49:56.588Z,12.46
2018-09-17T23:52:25.237Z,12.49
2018-09-17T23:54:53.816Z,12.53
2018-09-17T23:57:22.373Z,12.52
2018-09-17T23:59:50.905Z,12.50
